°C

Conditions at local time : on    Forecast:

Nearby METAR Reports

EGKA - Shoreham-By-Sea, United Kingdom
Distance from station: ENE 4mi, 6km
Updated: Wed, 22-Jan-2020 4:20pm GMT
Mist, Mostly cloudy
Mist, Mostly cloudy
 Wind from N
Wind: N 7 mph , 11 km/h
Temperature: 6°C
Wind Chill: 4°C
Dew Point: 5°C
Humidity: 93%
Barometer: 1036 hPa
Summary: Mist
Clouds: Mostly Cloudy
Visibility: 2 miles , 3 km
Cloud details: Partly Cloudy 244 m
Mostly Cloudy 427 m
2020/01/22 16:20 EGKA 221620Z 01006KT 2500 BR SCT008 BKN014 06/05 Q1036
EGKK - London/Gatwick A, United Kingdom
Distance from station: NNE 24mi, 39km
Updated: Wed, 22-Jan-2020 4:20pm GMT
Mist, Mostly cloudy
Mist, Mostly cloudy
 Wind from ENE
Wind: ENE 5 mph , 7 km/h
Temperature: 6°C
Wind Chill: 4°C
Dew Point: 6°C
Humidity: 100%
Barometer: 1036 hPa
Summary: Mist
Clouds: Mostly Cloudy
Visibility: 2 miles , 3 km
Cloud details: Partly Cloudy 122 m
Mostly Cloudy 244 m
Mostly Cloudy 396 m
2020/01/22 16:20 EGKK 221620Z 07004KT 2700 BR SCT004 BKN008 BKN013 06/06 Q1036
 
EGLF - Farnborough, United Kingdom
Distance from station: NNW 37mi, 59km
Updated: Wed, 22-Jan-2020 4:20pm GMT
Light drizzle, Mist, Mostly cloudy
Light drizzle, Mist, Mostly cloudy
 Wind from NNW
Wind: NNW 3 mph , 6 km/h
Temperature: 7°C
Dew Point: 6°C
Humidity: 93%
Barometer: 1036 hPa
Summary: Light drizzle, Mist
Clouds: Mostly Cloudy
Visibility: 1 mile , 2 km
Cloud details: Mostly Cloudy 91 m
Mostly Cloudy 366 m
2020/01/22 16:20 EGLF 221620Z 34003KT 2000 -DZ BR BKN003 BKN012 07/06 Q1036
EGVO - Odiham Raf, United Kingdom
Distance from station: NW 38mi, 61km
Updated: Wed, 22-Jan-2020 3:50pm GMT
Mist, Mostly cloudy
Mist, Mostly cloudy
 Wind from N
Wind: N 5 mph , 7 km/h
Temperature: 6°C
Wind Chill: 4°C
Dew Point: 6°C
Humidity: 100%
Barometer: 1035 hPa
Summary: Mist
Clouds: Mostly Cloudy
Visibility: 1 mile , 2 km
Cloud details: Mostly Cloudy 61 m
2020/01/22 15:50 EGVO 221550Z 36004KT 1800 0600NE BR BKN002 06/06 Q1035 RMK RED